sensor_id;sensor_type;location;lat;lon;timestamp;P1;durP1;ratioP1;P2;durP2;ratioP2
38513;SDS011;24282;48.400;10.808;2022-10-31T00:02:10;5.37;;;3.87;;
38513;SDS011;24282;48.400;10.808;2022-10-31T00:04:39;6.80;;;3.60;;
38513;SDS011;24282;48.400;10.808;2022-10-31T00:07:04;6.50;;;4.00;;
38513;SDS011;24282;48.400;10.808;2022-10-31T00:09:30;8.13;;;4.47;;
38513;SDS011;24282;48.400;10.808;2022-10-31T00:11:56;7.83;;;4.00;;
38513;SDS011;24282;48.400;10.808;2022-10-31T00:14:21;8.03;;;3.87;;
38513;SDS011;24282;48.400;10.808;2022-10-31T00:16:47;5.73;;;3.80;;
38513;SDS011;24282;48.400;10.808;2022-10-31T00:19:13;6.67;;;4.17;;
38513;SDS011;24282;48.400;10.808;2022-10-31T00:21:38;8.20;;;4.37;;
38513;SDS011;24282;48.400;10.808;2022-10-31T00:24:04;8.43;;;5.33;;
38513;SDS011;24282;48.400;10.808;2022-10-31T00:26:31;7.20;;;4.30;;
38513;SDS011;24282;48.400;10.808;2022-10-31T00:28:57;8.10;;;4.60;;
38513;SDS011;24282;48.400;10.808;2022-10-31T00:31:25;8.33;;;4.93;;
38513;SDS011;24282;48.400;10.808;2022-10-31T00:33:51;7.80;;;4.60;;
38513;SDS011;24282;48.400;10.808;2022-10-31T00:36:18;7.33;;;4.57;;
38513;SDS011;24282;48.400;10.808;2022-10-31T00:38:45;8.17;;;4.80;;
38513;SDS011;24282;48.400;10.808;2022-10-31T00:41:12;6.60;;;4.47;;
38513;SDS011;24282;48.400;10.808;2022-10-31T00:43:40;9.60;;;5.10;;
38513;SDS011;24282;48.400;10.808;2022-10-31T00:46:06;8.23;;;4.77;;
38513;SDS011;24282;48.400;10.808;2022-10-31T00:48:32;6.73;;;4.03;;
38513;SDS011;24282;48.400;10.808;2022-10-31T00:50:57;6.93;;;4.07;;
38513;SDS011;24282;48.400;10.808;2022-10-31T00:53:23;6.63;;;3.43;;
38513;SDS011;24282;48.400;10.808;2022-10-31T00:55:49;5.43;;;3.30;;
38513;SDS011;24282;48.400;10.808;2022-10-31T00:58:15;4.87;;;3.70;;
38513;SDS011;24282;48.400;10.808;2022-10-31T01:00:41;5.90;;;3.50;;
38513;SDS011;24282;48.400;10.808;2022-10-31T01:03:07;5.47;;;3.50;;
38513;SDS011;24282;48.400;10.808;2022-10-31T01:05:37;4.83;;;3.37;;
38513;SDS011;24282;48.400;10.808;2022-10-31T01:08:02;4.20;;;2.93;;
38513;SDS011;24282;48.400;10.808;2022-10-31T01:10:28;4.60;;;3.20;;
38513;SDS011;24282;48.400;10.808;2022-10-31T01:12:54;4.97;;;3.37;;
38513;SDS011;24282;48.400;10.808;2022-10-31T01:15:21;6.00;;;3.47;;
38513;SDS011;24282;48.400;10.808;2022-10-31T01:17:48;5.63;;;3.27;;
38513;SDS011;24282;48.400;10.808;2022-10-31T01:20:14;6.53;;;3.60;;
38513;SDS011;24282;48.400;10.808;2022-10-31T01:22:40;5.20;;;3.53;;
38513;SDS011;24282;48.400;10.808;2022-10-31T01:25:06;7.03;;;2.70;;
38513;SDS011;24282;48.400;10.808;2022-10-31T01:27:33;4.47;;;3.20;;
38513;SDS011;24282;48.400;10.808;2022-10-31T01:29:59;6.07;;;3.37;;
38513;SDS011;24282;48.400;10.808;2022-10-31T01:32:26;3.83;;;3.20;;
38513;SDS011;24282;48.400;10.808;2022-10-31T01:34:54;4.67;;;3.30;;
38513;SDS011;24282;48.400;10.808;2022-10-31T01:37:20;4.87;;;3.30;;
38513;SDS011;24282;48.400;10.808;2022-10-31T01:39:47;6.33;;;3.10;;
38513;SDS011;24282;48.400;10.808;2022-10-31T01:42:18;7.37;;;3.60;;
38513;SDS011;24282;48.400;10.808;2022-10-31T01:44:56;5.80;;;3.03;;
38513;SDS011;24282;48.400;10.808;2022-10-31T01:47:31;7.07;;;3.87;;
38513;SDS011;24282;48.400;10.808;2022-10-31T01:50:06;5.83;;;3.20;;
38513;SDS011;24282;48.400;10.808;2022-10-31T01:52:38;5.60;;;3.40;;
38513;SDS011;24282;48.400;10.808;2022-10-31T01:55:11;4.85;;;3.22;;
38513;SDS011;24282;48.400;10.808;2022-10-31T01:57:45;5.03;;;3.30;;
38513;SDS011;24282;48.400;10.808;2022-10-31T02:00:16;4.23;;;3.40;;
38513;SDS011;24282;48.400;10.808;2022-10-31T02:02:44;7.33;;;3.97;;
38513;SDS011;24282;48.400;10.808;2022-10-31T02:05:16;6.17;;;3.90;;
38513;SDS011;24282;48.400;10.808;2022-10-31T02:10:34;7.57;;;3.67;;
38513;SDS011;24282;48.400;10.808;2022-10-31T02:13:02;6.50;;;3.40;;
38513;SDS011;24282;48.400;10.808;2022-10-31T02:15:30;5.60;;;3.20;;
38513;SDS011;24282;48.400;10.808;2022-10-31T02:17:57;6.57;;;3.77;;
38513;SDS011;24282;48.400;10.808;2022-10-31T02:20:25;5.47;;;3.87;;
38513;SDS011;24282;48.400;10.808;2022-10-31T02:23:12;7.03;;;3.70;;
38513;SDS011;24282;48.400;10.808;2022-10-31T02:34:18;7.93;;;3.67;;
38513;SDS011;24282;48.400;10.808;2022-10-31T02:45:25;3.97;;;2.20;;
38513;SDS011;24282;48.400;10.808;2022-10-31T02:47:57;5.60;;;3.53;;
38513;SDS011;24282;48.400;10.808;2022-10-31T02:50:28;8.33;;;4.93;;
38513;SDS011;24282;48.400;10.808;2022-10-31T02:52:57;7.00;;;4.50;;
38513;SDS011;24282;48.400;10.808;2022-10-31T03:00:30;7.57;;;3.80;;
38513;SDS011;24282;48.400;10.808;2022-10-31T03:05:58;6.97;;;3.97;;
38513;SDS011;24282;48.400;10.808;2022-10-31T03:08:35;6.15;;;3.80;;
38513;SDS011;24282;48.400;10.808;2022-10-31T03:11:11;8.63;;;4.03;;
38513;SDS011;24282;48.400;10.808;2022-10-31T03:18:55;6.00;;;3.27;;
38513;SDS011;24282;48.400;10.808;2022-10-31T03:21:36;5.77;;;3.40;;
38513;SDS011;24282;48.400;10.808;2022-10-31T03:24:09;5.63;;;3.23;;
38513;SDS011;24282;48.400;10.808;2022-10-31T03:26:39;6.13;;;2.70;;
38513;SDS011;24282;48.400;10.808;2022-10-31T03:29:09;5.53;;;2.63;;
38513;SDS011;24282;48.400;10.808;2022-10-31T03:31:49;5.22;;;3.33;;
38513;SDS011;24282;48.400;10.808;2022-10-31T03:34:27;4.40;;;2.77;;
38513;SDS011;24282;48.400;10.808;2022-10-31T03:36:55;5.17;;;3.00;;
38513;SDS011;24282;48.400;10.808;2022-10-31T03:39:25;4.20;;;2.97;;
38513;SDS011;24282;48.400;10.808;2022-10-31T03:41:53;4.30;;;2.80;;
38513;SDS011;24282;48.400;10.808;2022-10-31T03:44:24;4.90;;;3.40;;
38513;SDS011;24282;48.400;10.808;2022-10-31T03:47:00;5.47;;;3.10;;
38513;SDS011;24282;48.400;10.808;2022-10-31T03:49:28;4.50;;;3.07;;
38513;SDS011;24282;48.400;10.808;2022-10-31T04:02:47;9.90;;;3.40;;
38513;SDS011;24282;48.400;10.808;2022-10-31T04:05:25;7.33;;;3.37;;
38513;SDS011;24282;48.400;10.808;2022-10-31T04:07:57;6.47;;;4.13;;
38513;SDS011;24282;48.400;10.808;2022-10-31T04:10:25;7.63;;;3.70;;
38513;SDS011;24282;48.400;10.808;2022-10-31T04:12:54;6.60;;;3.70;;
38513;SDS011;24282;48.400;10.808;2022-10-31T04:15:38;7.07;;;4.17;;
38513;SDS011;24282;48.400;10.808;2022-10-31T04:18:05;9.30;;;4.80;;
38513;SDS011;24282;48.400;10.808;2022-10-31T04:20:35;10.47;;;5.37;;
38513;SDS011;24282;48.400;10.808;2022-10-31T04:23:04;8.60;;;5.05;;
38513;SDS011;24282;48.400;10.808;2022-10-31T04:25:30;11.27;;;5.50;;
38513;SDS011;24282;48.400;10.808;2022-10-31T04:27:58;8.80;;;5.07;;
38513;SDS011;24282;48.400;10.808;2022-10-31T04:30:24;9.10;;;4.90;;
38513;SDS011;24282;48.400;10.808;2022-10-31T04:32:49;9.83;;;5.47;;
38513;SDS011;24282;48.400;10.808;2022-10-31T04:35:16;10.33;;;5.20;;
38513;SDS011;24282;48.400;10.808;2022-10-31T04:37:42;10.47;;;5.30;;
38513;SDS011;24282;48.400;10.808;2022-10-31T04:40:08;9.97;;;5.70;;
38513;SDS011;24282;48.400;10.808;2022-10-31T04:42:52;11.87;;;5.53;;
38513;SDS011;24282;48.400;10.808;2022-10-31T04:45:18;9.97;;;5.60;;
38513;SDS011;24282;48.400;10.808;2022-10-31T04:47:44;12.17;;;5.70;;
38513;SDS011;24282;48.400;10.808;2022-10-31T04:50:09;9.70;;;5.00;;
38513;SDS011;24282;48.400;10.808;2022-10-31T04:52:40;12.57;;;6.73;;
38513;SDS011;24282;48.400;10.808;2022-10-31T04:55:08;16.17;;;8.10;;
38513;SDS011;24282;48.400;10.808;2022-10-31T04:57:53;21.87;;;7.87;;
38513;SDS011;24282;48.400;10.808;2022-10-31T05:00:20;16.57;;;8.17;;
38513;SDS011;24282;48.400;10.808;2022-10-31T05:02:52;17.87;;;8.67;;
38513;SDS011;24282;48.400;10.808;2022-10-31T05:05:27;15.07;;;7.90;;
38513;SDS011;24282;48.400;10.808;2022-10-31T05:07:55;12.47;;;6.23;;
38513;SDS011;24282;48.400;10.808;2022-10-31T05:10:24;9.40;;;5.33;;
38513;SDS011;24282;48.400;10.808;2022-10-31T05:12:52;7.83;;;5.00;;
38513;SDS011;24282;48.400;10.808;2022-10-31T05:15:37;8.43;;;4.47;;
38513;SDS011;24282;48.400;10.808;2022-10-31T05:18:29;7.57;;;4.07;;
38513;SDS011;24282;48.400;10.808;2022-10-31T05:21:13;7.63;;;4.50;;
38513;SDS011;24282;48.400;10.808;2022-10-31T05:23:49;7.00;;;3.83;;
38513;SDS011;24282;48.400;10.808;2022-10-31T05:26:16;7.07;;;4.10;;
38513;SDS011;24282;48.400;10.808;2022-10-31T05:28:42;8.13;;;4.43;;
38513;SDS011;24282;48.400;10.808;2022-10-31T05:31:07;9.00;;;4.23;;
38513;SDS011;24282;48.400;10.808;2022-10-31T05:33:33;7.17;;;4.53;;
38513;SDS011;24282;48.400;10.808;2022-10-31T05:36:19;7.60;;;4.93;;
38513;SDS011;24282;48.400;10.808;2022-10-31T05:38:52;6.85;;;4.15;;
38513;SDS011;24282;48.400;10.808;2022-10-31T05:41:27;6.77;;;4.43;;
38513;SDS011;24282;48.400;10.808;2022-10-31T05:44:02;7.27;;;4.10;;
38513;SDS011;24282;48.400;10.808;2022-10-31T05:46:31;9.40;;;4.70;;
38513;SDS011;24282;48.400;10.808;2022-10-31T05:49:15;6.53;;;3.87;;
38513;SDS011;24282;48.400;10.808;2022-10-31T05:52:11;8.40;;;4.13;;
38513;SDS011;24282;48.400;10.808;2022-10-31T05:54:48;8.10;;;4.43;;
38513;SDS011;24282;48.400;10.808;2022-10-31T05:57:14;6.23;;;3.67;;
38513;SDS011;24282;48.400;10.808;2022-10-31T05:59:40;6.00;;;3.50;;
38513;SDS011;24282;48.400;10.808;2022-10-31T06:02:06;5.17;;;3.23;;
38513;SDS011;24282;48.400;10.808;2022-10-31T06:05:03;11.20;;;4.40;;
38513;SDS011;24282;48.400;10.808;2022-10-31T06:07:33;8.97;;;4.57;;
38513;SDS011;24282;48.400;10.808;2022-10-31T06:10:00;9.30;;;5.50;;
38513;SDS011;24282;48.400;10.808;2022-10-31T06:12:28;9.63;;;5.27;;
38513;SDS011;24282;48.400;10.808;2022-10-31T06:15:20;12.20;;;6.43;;
38513;SDS011;24282;48.400;10.808;2022-10-31T06:17:47;10.30;;;5.87;;
38513;SDS011;24282;48.400;10.808;2022-10-31T06:20:26;11.07;;;6.03;;
38513;SDS011;24282;48.400;10.808;2022-10-31T06:23:00;10.27;;;6.47;;
38513;SDS011;24282;48.400;10.808;2022-10-31T06:25:26;10.93;;;6.07;;
38513;SDS011;24282;48.400;10.808;2022-10-31T06:27:52;9.70;;;5.73;;
38513;SDS011;24282;48.400;10.808;2022-10-31T06:30:21;8.17;;;5.30;;
38513;SDS011;24282;48.400;10.808;2022-10-31T06:32:47;8.33;;;5.10;;
38513;SDS011;24282;48.400;10.808;2022-10-31T06:35:14;9.03;;;4.50;;
38513;SDS011;24282;48.400;10.808;2022-10-31T06:37:41;8.50;;;4.50;;
38513;SDS011;24282;48.400;10.808;2022-10-31T06:40:25;9.60;;;4.27;;
38513;SDS011;24282;48.400;10.808;2022-10-31T06:43:08;7.95;;;4.70;;
38513;SDS011;24282;48.400;10.808;2022-10-31T06:45:34;8.10;;;4.13;;
38513;SDS011;24282;48.400;10.808;2022-10-31T06:48:18;8.70;;;4.60;;
38513;SDS011;24282;48.400;10.808;2022-10-31T06:51:07;8.87;;;5.57;;
38513;SDS011;24282;48.400;10.808;2022-10-31T06:53:32;8.70;;;5.17;;
38513;SDS011;24282;48.400;10.808;2022-10-31T06:55:59;10.30;;;5.80;;
38513;SDS011;24282;48.400;10.808;2022-10-31T06:58:25;9.63;;;5.57;;
38513;SDS011;24282;48.400;10.808;2022-10-31T07:00:54;11.17;;;6.30;;
38513;SDS011;24282;48.400;10.808;2022-10-31T07:03:23;11.00;;;6.40;;
38513;SDS011;24282;48.400;10.808;2022-10-31T07:05:50;9.93;;;5.83;;
38513;SDS011;24282;48.400;10.808;2022-10-31T07:08:16;10.40;;;6.43;;
38513;SDS011;24282;48.400;10.808;2022-10-31T07:10:42;9.37;;;6.03;;
38513;SDS011;24282;48.400;10.808;2022-10-31T07:13:13;10.13;;;6.27;;
38513;SDS011;24282;48.400;10.808;2022-10-31T07:15:44;11.00;;;5.97;;
38513;SDS011;24282;48.400;10.808;2022-10-31T07:18:12;8.47;;;5.90;;
38513;SDS011;24282;48.400;10.808;2022-10-31T07:20:38;9.77;;;6.20;;
38513;SDS011;24282;48.400;10.808;2022-10-31T07:23:04;10.30;;;5.80;;
38513;SDS011;24282;48.400;10.808;2022-10-31T07:25:31;9.43;;;5.50;;
38513;SDS011;24282;48.400;10.808;2022-10-31T07:28:10;8.17;;;5.33;;
38513;SDS011;24282;48.400;10.808;2022-10-31T07:30:37;9.03;;;5.03;;
38513;SDS011;24282;48.400;10.808;2022-10-31T07:33:03;7.67;;;4.70;;
38513;SDS011;24282;48.400;10.808;2022-10-31T07:35:48;12.73;;;5.57;;
38513;SDS011;24282;48.400;10.808;2022-10-31T07:38:20;7.80;;;4.80;;
38513;SDS011;24282;48.400;10.808;2022-10-31T07:40:49;10.50;;;5.37;;
38513;SDS011;24282;48.400;10.808;2022-10-31T07:43:17;8.20;;;5.07;;
38513;SDS011;24282;48.400;10.808;2022-10-31T07:46:03;8.23;;;5.43;;
38513;SDS011;24282;48.400;10.808;2022-10-31T07:48:48;8.53;;;5.53;;
38513;SDS011;24282;48.400;10.808;2022-10-31T07:51:49;8.57;;;4.83;;
38513;SDS011;24282;48.400;10.808;2022-10-31T07:54:33;7.73;;;5.37;;
38513;SDS011;24282;48.400;10.808;2022-10-31T07:56:59;8.37;;;5.10;;
38513;SDS011;24282;48.400;10.808;2022-10-31T07:59:24;9.40;;;5.20;;
38513;SDS011;24282;48.400;10.808;2022-10-31T08:01:52;7.07;;;4.83;;
38513;SDS011;24282;48.400;10.808;2022-10-31T08:04:30;8.97;;;5.63;;
38513;SDS011;24282;48.400;10.808;2022-10-31T08:07:14;8.77;;;5.00;;
38513;SDS011;24282;48.400;10.808;2022-10-31T08:09:45;7.20;;;4.80;;
38513;SDS011;24282;48.400;10.808;2022-10-31T08:12:18;6.45;;;4.50;;
38513;SDS011;24282;48.400;10.808;2022-10-31T08:14:45;8.47;;;5.20;;
38513;SDS011;24282;48.400;10.808;2022-10-31T08:17:12;9.33;;;5.03;;
38513;SDS011;24282;48.400;10.808;2022-10-31T08:19:45;6.95;;;4.78;;
38513;SDS011;24282;48.400;10.808;2022-10-31T08:22:13;9.50;;;5.30;;
38513;SDS011;24282;48.400;10.808;2022-10-31T08:24:39;8.30;;;5.47;;
38513;SDS011;24282;48.400;10.808;2022-10-31T08:27:05;12.23;;;6.30;;
38513;SDS011;24282;48.400;10.808;2022-10-31T08:29:31;9.83;;;5.60;;
38513;SDS011;24282;48.400;10.808;2022-10-31T08:31:57;7.80;;;5.50;;
38513;SDS011;24282;48.400;10.808;2022-10-31T08:34:42;8.80;;;4.83;;
38513;SDS011;24282;48.400;10.808;2022-10-31T08:37:26;7.63;;;5.20;;
38513;SDS011;24282;48.400;10.808;2022-10-31T08:39:53;12.03;;;5.03;;
38513;SDS011;24282;48.400;10.808;2022-10-31T08:42:20;7.70;;;5.10;;
38513;SDS011;24282;48.400;10.808;2022-10-31T08:44:46;7.83;;;5.17;;
38513;SDS011;24282;48.400;10.808;2022-10-31T08:47:12;10.23;;;5.63;;
38513;SDS011;24282;48.400;10.808;2022-10-31T08:49:38;8.87;;;4.50;;
38513;SDS011;24282;48.400;10.808;2022-10-31T08:52:04;8.43;;;4.43;;
38513;SDS011;24282;48.400;10.808;2022-10-31T08:54:34;8.83;;;4.60;;
38513;SDS011;24282;48.400;10.808;2022-10-31T08:57:38;7.40;;;4.43;;
38513;SDS011;24282;48.400;10.808;2022-10-31T09:00:04;9.10;;;5.07;;
38513;SDS011;24282;48.400;10.808;2022-10-31T09:02:57;5.83;;;4.23;;
38513;SDS011;24282;48.400;10.808;2022-10-31T09:05:25;7.37;;;3.93;;
38513;SDS011;24282;48.400;10.808;2022-10-31T09:07:55;7.47;;;4.43;;
38513;SDS011;24282;48.400;10.808;2022-10-31T09:10:23;7.93;;;3.40;;
38513;SDS011;24282;48.400;10.808;2022-10-31T09:13:01;5.17;;;3.33;;
38513;SDS011;24282;48.400;10.808;2022-10-31T09:15:32;8.83;;;4.13;;
38513;SDS011;24282;48.400;10.808;2022-10-31T09:18:14;8.30;;;3.23;;
38513;SDS011;24282;48.400;10.808;2022-10-31T09:20:53;8.17;;;4.53;;
38513;SDS011;24282;48.400;10.808;2022-10-31T09:23:22;9.47;;;3.77;;
38513;SDS011;24282;48.400;10.808;2022-10-31T09:25:48;6.53;;;3.83;;
38513;SDS011;24282;48.400;10.808;2022-10-31T09:28:41;10.13;;;4.25;;
38513;SDS011;24282;48.400;10.808;2022-10-31T09:31:15;7.73;;;3.47;;
38513;SDS011;24282;48.400;10.808;2022-10-31T09:33:47;7.47;;;3.73;;
38513;SDS011;24282;48.400;10.808;2022-10-31T09:36:41;7.30;;;3.67;;
38513;SDS011;24282;48.400;10.808;2022-10-31T09:39:12;9.27;;;4.10;;
38513;SDS011;24282;48.400;10.808;2022-10-31T09:44:27;7.03;;;3.70;;
38513;SDS011;24282;48.400;10.808;2022-10-31T09:52:30;9.38;;;4.75;;
38513;SDS011;24282;48.400;10.808;2022-10-31T09:55:08;9.25;;;5.20;;
38513;SDS011;24282;48.400;10.808;2022-10-31T09:57:40;11.20;;;5.78;;
38513;SDS011;24282;48.400;10.808;2022-10-31T10:00:07;10.55;;;5.93;;
38513;SDS011;24282;48.400;10.808;2022-10-31T10:03:06;9.80;;;6.05;;
38513;SDS011;24282;48.400;10.808;2022-10-31T10:05:33;13.40;;;6.32;;
38513;SDS011;24282;48.400;10.808;2022-10-31T10:08:18;11.63;;;6.68;;
38513;SDS011;24282;48.400;10.808;2022-10-31T10:11:01;11.00;;;6.35;;
38513;SDS011;24282;48.400;10.808;2022-10-31T10:33:35;11.73;;;7.45;;
38513;SDS011;24282;48.400;10.808;2022-10-31T10:36:05;15.18;;;8.13;;
38513;SDS011;24282;48.400;10.808;2022-10-31T10:38:51;15.63;;;8.35;;
38513;SDS011;24282;48.400;10.808;2022-10-31T10:41:21;11.27;;;7.28;;
38513;SDS011;24282;48.400;10.808;2022-10-31T10:43:48;13.88;;;9.27;;
38513;SDS011;24282;48.400;10.808;2022-10-31T10:46:39;17.45;;;9.55;;
38513;SDS011;24282;48.400;10.808;2022-10-31T10:59:39;20.77;;;14.98;;
38513;SDS011;24282;48.400;10.808;2022-10-31T11:02:15;26.52;;;15.50;;
38513;SDS011;24282;48.400;10.808;2022-10-31T11:04:47;24.63;;;17.40;;
38513;SDS011;24282;48.400;10.808;2022-10-31T11:07:17;24.08;;;16.88;;
38513;SDS011;24282;48.400;10.808;2022-10-31T11:09:43;19.52;;;14.07;;
38513;SDS011;24282;48.400;10.808;2022-10-31T11:12:10;23.63;;;15.93;;
38513;SDS011;24282;48.400;10.808;2022-10-31T11:14:44;22.55;;;16.45;;
38513;SDS011;24282;48.400;10.808;2022-10-31T11:17:26;26.15;;;16.80;;
38513;SDS011;24282;48.400;10.808;2022-10-31T11:20:04;22.52;;;14.57;;
38513;SDS011;24282;48.400;10.808;2022-10-31T11:22:37;23.40;;;15.25;;
38513;SDS011;24282;48.400;10.808;2022-10-31T11:25:21;18.65;;;13.70;;
38513;SDS011;24282;48.400;10.808;2022-10-31T11:30:48;21.25;;;13.13;;
38513;SDS011;24282;48.400;10.808;2022-10-31T11:33:32;19.40;;;13.52;;
38513;SDS011;24282;48.400;10.808;2022-10-31T11:36:02;20.17;;;14.50;;
38513;SDS011;24282;48.400;10.808;2022-10-31T11:38:40;16.75;;;13.75;;
38513;SDS011;24282;48.400;10.808;2022-10-31T11:41:10;19.45;;;14.18;;
38513;SDS011;24282;48.400;10.808;2022-10-31T11:43:45;16.23;;;13.32;;
38513;SDS011;24282;48.400;10.808;2022-10-31T11:46:33;19.17;;;13.15;;
38513;SDS011;24282;48.400;10.808;2022-10-31T11:49:05;19.67;;;13.85;;
38513;SDS011;24282;48.400;10.808;2022-10-31T11:51:40;19.02;;;14.00;;
38513;SDS011;24282;48.400;10.808;2022-10-31T11:54:15;15.93;;;12.57;;
38513;SDS011;24282;48.400;10.808;2022-10-31T11:56:46;17.02;;;13.25;;
38513;SDS011;24282;48.400;10.808;2022-10-31T11:59:20;18.42;;;13.48;;
38513;SDS011;24282;48.400;10.808;2022-10-31T12:01:55;14.40;;;11.70;;
38513;SDS011;24282;48.400;10.808;2022-10-31T12:04:27;13.10;;;10.48;;
38513;SDS011;24282;48.400;10.808;2022-10-31T12:07:11;12.57;;;10.73;;
38513;SDS011;24282;48.400;10.808;2022-10-31T12:09:37;12.93;;;10.80;;
38513;SDS011;24282;48.400;10.808;2022-10-31T12:12:10;15.55;;;12.07;;
38513;SDS011;24282;48.400;10.808;2022-10-31T12:17:20;13.68;;;11.63;;
38513;SDS011;24282;48.400;10.808;2022-10-31T12:33:38;14.55;;;11.40;;
38513;SDS011;24282;48.400;10.808;2022-10-31T12:36:39;15.23;;;10.63;;
38513;SDS011;24282;48.400;10.808;2022-10-31T12:41:52;10.95;;;9.65;;
38513;SDS011;24282;48.400;10.808;2022-10-31T12:50:27;13.23;;;11.32;;
38513;SDS011;24282;48.400;10.808;2022-10-31T12:55:45;15.60;;;12.98;;
38513;SDS011;24282;48.400;10.808;2022-10-31T12:58:30;16.02;;;12.32;;
38513;SDS011;24282;48.400;10.808;2022-10-31T13:01:06;16.23;;;13.23;;
38513;SDS011;24282;48.400;10.808;2022-10-31T13:06:22;17.98;;;12.27;;
38513;SDS011;24282;48.400;10.808;2022-10-31T13:08:55;14.73;;;12.48;;
38513;SDS011;24282;48.400;10.808;2022-10-31T13:11:26;16.13;;;12.40;;
38513;SDS011;24282;48.400;10.808;2022-10-31T13:16:46;14.40;;;11.88;;
38513;SDS011;24282;48.400;10.808;2022-10-31T13:24:31;14.95;;;13.23;;
38513;SDS011;24282;48.400;10.808;2022-10-31T13:26:59;16.35;;;13.32;;
38513;SDS011;24282;48.400;10.808;2022-10-31T13:29:43;13.40;;;12.00;;
38513;SDS011;24282;48.400;10.808;2022-10-31T13:32:16;17.35;;;15.40;;
38513;SDS011;24282;48.400;10.808;2022-10-31T13:34:44;17.77;;;13.98;;
38513;SDS011;24282;48.400;10.808;2022-10-31T13:45:23;18.80;;;15.63;;
38513;SDS011;24282;48.400;10.808;2022-10-31T13:47:57;16.50;;;14.40;;
38513;SDS011;24282;48.400;10.808;2022-10-31T13:56:24;19.27;;;15.77;;
38513;SDS011;24282;48.400;10.808;2022-10-31T14:01:35;19.05;;;15.90;;
38513;SDS011;24282;48.400;10.808;2022-10-31T14:04:03;17.92;;;16.02;;
38513;SDS011;24282;48.400;10.808;2022-10-31T14:06:42;22.15;;;15.00;;
38513;SDS011;24282;48.400;10.808;2022-10-31T14:09:19;17.88;;;14.20;;
38513;SDS011;24282;48.400;10.808;2022-10-31T14:11:49;14.95;;;13.20;;
38513;SDS011;24282;48.400;10.808;2022-10-31T14:14:16;18.13;;;14.63;;
38513;SDS011;24282;48.400;10.808;2022-10-31T14:16:44;16.70;;;12.95;;
38513;SDS011;24282;48.400;10.808;2022-10-31T14:19:15;14.93;;;13.23;;
38513;SDS011;24282;48.400;10.808;2022-10-31T14:21:44;15.98;;;14.25;;
38513;SDS011;24282;48.400;10.808;2022-10-31T14:24:14;16.05;;;13.20;;
38513;SDS011;24282;48.400;10.808;2022-10-31T14:29:47;16.52;;;13.98;;
38513;SDS011;24282;48.400;10.808;2022-10-31T14:34:40;14.02;;;12.50;;
38513;SDS011;24282;48.400;10.808;2022-10-31T14:37:24;14.63;;;12.75;;
38513;SDS011;24282;48.400;10.808;2022-10-31T14:45:21;13.88;;;12.35;;
38513;SDS011;24282;48.400;10.808;2022-10-31T14:48:21;17.77;;;12.60;;
38513;SDS011;24282;48.400;10.808;2022-10-31T14:51:10;14.82;;;12.23;;
38513;SDS011;24282;48.400;10.808;2022-10-31T14:53:49;15.10;;;13.55;;
38513;SDS011;24282;48.400;10.808;2022-10-31T14:56:34;17.30;;;14.27;;
38513;SDS011;24282;48.400;10.808;2022-10-31T14:59:04;15.48;;;13.18;;
38513;SDS011;24282;48.400;10.808;2022-10-31T15:01:35;17.55;;;13.35;;
38513;SDS011;24282;48.400;10.808;2022-10-31T15:04:04;17.48;;;14.77;;
38513;SDS011;24282;48.400;10.808;2022-10-31T15:06:40;18.30;;;14.25;;
38513;SDS011;24282;48.400;10.808;2022-10-31T15:09:29;18.27;;;15.10;;
38513;SDS011;24282;48.400;10.808;2022-10-31T15:11:57;18.67;;;14.05;;
38513;SDS011;24282;48.400;10.808;2022-10-31T15:14:26;16.85;;;14.00;;
38513;SDS011;24282;48.400;10.808;2022-10-31T15:17:01;16.83;;;13.35;;
38513;SDS011;24282;48.400;10.808;2022-10-31T15:19:29;17.47;;;14.00;;
38513;SDS011;24282;48.400;10.808;2022-10-31T15:21:57;14.15;;;12.65;;
38513;SDS011;24282;48.400;10.808;2022-10-31T15:24:32;15.27;;;13.63;;
38513;SDS011;24282;48.400;10.808;2022-10-31T15:27:00;17.40;;;13.20;;
38513;SDS011;24282;48.400;10.808;2022-10-31T15:29:27;19.25;;;14.85;;
38513;SDS011;24282;48.400;10.808;2022-10-31T15:34:41;19.55;;;15.27;;
38513;SDS011;24282;48.400;10.808;2022-10-31T15:37:09;15.55;;;13.95;;
38513;SDS011;24282;48.400;10.808;2022-10-31T15:39:37;16.13;;;14.40;;
38513;SDS011;24282;48.400;10.808;2022-10-31T15:42:03;15.43;;;13.82;;
38513;SDS011;24282;48.400;10.808;2022-10-31T15:44:33;15.18;;;13.57;;
38513;SDS011;24282;48.400;10.808;2022-10-31T15:47:02;15.90;;;14.27;;
38513;SDS011;24282;48.400;10.808;2022-10-31T15:54:48;15.32;;;13.05;;
38513;SDS011;24282;48.400;10.808;2022-10-31T15:57:20;14.57;;;12.23;;
38513;SDS011;24282;48.400;10.808;2022-10-31T15:59:48;13.95;;;12.48;;
38513;SDS011;24282;48.400;10.808;2022-10-31T16:02:17;14.48;;;12.35;;
38513;SDS011;24282;48.400;10.808;2022-10-31T16:07:16;14.38;;;11.73;;
38513;SDS011;24282;48.400;10.808;2022-10-31T16:12:15;14.48;;;12.98;;
38513;SDS011;24282;48.400;10.808;2022-10-31T16:14:41;15.15;;;13.23;;
38513;SDS011;24282;48.400;10.808;2022-10-31T16:17:10;13.38;;;11.98;;
38513;SDS011;24282;48.400;10.808;2022-10-31T16:19:48;15.18;;;12.77;;
38513;SDS011;24282;48.400;10.808;2022-10-31T16:22:20;14.30;;;12.35;;
38513;SDS011;24282;48.400;10.808;2022-10-31T16:27:18;14.80;;;13.27;;
38513;SDS011;24282;48.400;10.808;2022-10-31T16:29:48;14.88;;;13.18;;
38513;SDS011;24282;48.400;10.808;2022-10-31T16:37:39;16.17;;;13.63;;
38513;SDS011;24282;48.400;10.808;2022-10-31T16:40:06;17.50;;;13.63;;
38513;SDS011;24282;48.400;10.808;2022-10-31T16:42:33;14.75;;;13.02;;
38513;SDS011;24282;48.400;10.808;2022-10-31T16:44:58;14.48;;;12.98;;
38513;SDS011;24282;48.400;10.808;2022-10-31T16:47:25;14.88;;;13.27;;
38513;SDS011;24282;48.400;10.808;2022-10-31T16:49:50;14.32;;;12.82;;
38513;SDS011;24282;48.400;10.808;2022-10-31T16:52:16;14.32;;;12.63;;
38513;SDS011;24282;48.400;10.808;2022-10-31T16:54:42;15.38;;;12.98;;
38513;SDS011;24282;48.400;10.808;2022-10-31T16:57:12;15.80;;;13.70;;
38513;SDS011;24282;48.400;10.808;2022-10-31T16:59:41;15.10;;;12.85;;
38513;SDS011;24282;48.400;10.808;2022-10-31T17:02:10;15.20;;;12.93;;
38513;SDS011;24282;48.400;10.808;2022-10-31T17:04:41;14.68;;;12.25;;
38513;SDS011;24282;48.400;10.808;2022-10-31T17:07:07;14.82;;;11.90;;
38513;SDS011;24282;48.400;10.808;2022-10-31T17:09:32;14.52;;;12.05;;
38513;SDS011;24282;48.400;10.808;2022-10-31T17:11:58;14.85;;;13.20;;
38513;SDS011;24282;48.400;10.808;2022-10-31T17:14:24;16.05;;;14.35;;
38513;SDS011;24282;48.400;10.808;2022-10-31T17:16:50;16.20;;;13.95;;
38513;SDS011;24282;48.400;10.808;2022-10-31T17:19:16;17.65;;;13.73;;
38513;SDS011;24282;48.400;10.808;2022-10-31T17:21:41;15.43;;;13.82;;
38513;SDS011;24282;48.400;10.808;2022-10-31T17:24:09;15.65;;;13.98;;
38513;SDS011;24282;48.400;10.808;2022-10-31T17:26:38;15.35;;;13.57;;
38513;SDS011;24282;48.400;10.808;2022-10-31T17:29:04;15.05;;;13.38;;
38513;SDS011;24282;48.400;10.808;2022-10-31T17:31:31;14.15;;;12.70;;
38513;SDS011;24282;48.400;10.808;2022-10-31T17:33:59;12.75;;;11.35;;
38513;SDS011;24282;48.400;10.808;2022-10-31T17:36:25;13.43;;;11.57;;
38513;SDS011;24282;48.400;10.808;2022-10-31T17:38:51;11.73;;;10.07;;
38513;SDS011;24282;48.400;10.808;2022-10-31T17:41:17;11.50;;;10.30;;
38513;SDS011;24282;48.400;10.808;2022-10-31T17:43:42;10.05;;;9.05;;